sensor_id;sensor_type;location;lat;lon;timestamp;pressure;altitude;pressure_sealevel;temperature;humidity
42945;BME280;28584;42.636;23.294;2022-07-03T00:00:38;103461.59;;;17.88;100.00
42945;BME280;28584;42.636;23.294;2022-07-03T00:03:04;102968.13;;;17.84;100.00
42945;BME280;28584;42.636;23.294;2022-07-03T00:05:29;102386.25;;;17.81;100.00
42945;BME280;28584;42.636;23.294;2022-07-03T00:07:55;102162.22;;;17.79;100.00
42945;BME280;28584;42.636;23.294;2022-07-03T00:10:20;100471.84;;;17.92;100.00
42945;BME280;28584;42.636;23.294;2022-07-03T00:12:46;100878.19;;;17.95;100.00
42945;BME280;28584;42.636;23.294;2022-07-03T00:15:12;102126.78;;;17.91;100.00
42945;BME280;28584;42.636;23.294;2022-07-03T00:17:37;102284.09;;;17.89;100.00
42945;BME280;28584;42.636;23.294;2022-07-03T00:20:03;100102.06;;;17.91;100.00
42945;BME280;28584;42.636;23.294;2022-07-03T00:22:30;99536.31;;;17.92;100.00
42945;BME280;28584;42.636;23.294;2022-07-03T00:25:03;98168.88;;;17.83;100.00
42945;BME280;28584;42.636;23.294;2022-07-03T00:27:31;97087.56;;;17.79;100.00
42945;BME280;28584;42.636;23.294;2022-07-03T00:29:59;96286.31;;;17.71;100.00
42945;BME280;28584;42.636;23.294;2022-07-03T00:32:26;95021.53;;;17.68;100.00
42945;BME280;28584;42.636;23.294;2022-07-03T00:34:54;93898.03;;;17.68;100.00
42945;BME280;28584;42.636;23.294;2022-07-03T00:37:20;93073.34;;;17.71;100.00
42945;BME280;28584;42.636;23.294;2022-07-03T00:39:47;92337.41;;;17.70;100.00
42945;BME280;28584;42.636;23.294;2022-07-03T00:42:16;91996.09;;;17.67;100.00
42945;BME280;28584;42.636;23.294;2022-07-03T00:44:53;92056.84;;;17.67;100.00
42945;BME280;28584;42.636;23.294;2022-07-03T00:47:24;92144.69;;;17.63;100.00
42945;BME280;28584;42.636;23.294;2022-07-03T00:49:54;91625.22;;;17.51;100.00
42945;BME280;28584;42.636;23.294;2022-07-03T00:52:21;90424.91;;;17.49;100.00
42945;BME280;28584;42.636;23.294;2022-07-03T00:54:55;89541.97;;;17.36;100.00
42945;BME280;28584;42.636;23.294;2022-07-03T00:57:22;88141.78;;;17.38;100.00
42945;BME280;28584;42.636;23.294;2022-07-03T00:59:49;88273.53;;;17.16;100.00
42945;BME280;28584;42.636;23.294;2022-07-03T01:02:56;87195.41;;;17.25;100.00
42945;BME280;28584;42.636;23.294;2022-07-03T01:10:59;84504.47;;;17.33;100.00
42945;BME280;28584;42.636;23.294;2022-07-03T01:13:46;84823.09;;;17.26;100.00
42945;BME280;28584;42.636;23.294;2022-07-03T01:16:25;84298.06;;;17.25;100.00
42945;BME280;28584;42.636;23.294;2022-07-03T01:19:04;83843.97;;;17.23;100.00
42945;BME280;28584;42.636;23.294;2022-07-03T01:21:36;82845.91;;;17.21;100.00
42945;BME280;28584;42.636;23.294;2022-07-03T01:26:59;81123.53;;;17.08;100.00
42945;BME280;28584;42.636;23.294;2022-07-03T01:29:43;80563.56;;;17.07;100.00
42945;BME280;28584;42.636;23.294;2022-07-03T01:32:14;80228.81;;;16.99;100.00
42945;BME280;28584;42.636;23.294;2022-07-03T01:34:43;79873.06;;;16.98;100.00
42945;BME280;28584;42.636;23.294;2022-07-03T01:37:10;79597.19;;;16.95;100.00
42945;BME280;28584;42.636;23.294;2022-07-03T01:39:43;79238.94;;;16.92;100.00
42945;BME280;28584;42.636;23.294;2022-07-03T01:42:10;78784.75;;;16.95;100.00
42945;BME280;28584;42.636;23.294;2022-07-03T01:44:39;78596.50;;;16.96;100.00
42945;BME280;28584;42.636;23.294;2022-07-03T01:47:06;78521.50;;;16.98;100.00
42945;BME280;28584;42.636;23.294;2022-07-03T01:49:32;78284.66;;;16.91;100.00
42945;BME280;28584;42.636;23.294;2022-07-03T01:51:58;78124.72;;;16.77;100.00
42945;BME280;28584;42.636;23.294;2022-07-03T01:54:28;77884.44;;;16.78;100.00
42945;BME280;28584;42.636;23.294;2022-07-03T01:56:55;77287.91;;;16.80;100.00
42945;BME280;28584;42.636;23.294;2022-07-03T01:59:20;76421.03;;;16.82;100.00
42945;BME280;28584;42.636;23.294;2022-07-03T02:02:09;75534.50;;;16.89;100.00
42945;BME280;28584;42.636;23.294;2022-07-03T02:08:11;74977.28;;;16.77;100.00
42945;BME280;28584;42.636;23.294;2022-07-03T02:10:38;74865.53;;;16.60;100.00
42945;BME280;28584;42.636;23.294;2022-07-03T02:13:11;74831.72;;;16.61;100.00
42945;BME280;28584;42.636;23.294;2022-07-03T02:15:43;74831.69;;;16.66;100.00
42945;BME280;28584;42.636;23.294;2022-07-03T02:18:29;74738.75;;;16.64;100.00
42945;BME280;28584;42.636;23.294;2022-07-03T02:21:18;74731.75;;;16.65;100.00
42945;BME280;28584;42.636;23.294;2022-07-03T02:23:54;74731.47;;;16.58;100.00
42945;BME280;28584;42.636;23.294;2022-07-03T02:26:27;74719.03;;;16.50;100.00
42945;BME280;28584;42.636;23.294;2022-07-03T02:31:21;74805.22;;;16.51;100.00
42945;BME280;28584;42.636;23.294;2022-07-03T02:33:50;74872.53;;;16.59;100.00
42945;BME280;28584;42.636;23.294;2022-07-03T02:36:23;74910.66;;;16.52;100.00
42945;BME280;28584;42.636;23.294;2022-07-03T02:38:55;74936.53;;;16.53;100.00
42945;BME280;28584;42.636;23.294;2022-07-03T02:41:37;75034.03;;;16.52;100.00
42945;BME280;28584;42.636;23.294;2022-07-03T02:44:14;74928.88;;;16.71;100.00
42945;BME280;28584;42.636;23.294;2022-07-03T02:47:06;74716.78;;;16.73;100.00
42945;BME280;28584;42.636;23.294;2022-07-03T02:49:58;74660.75;;;16.67;100.00
42945;BME280;28584;42.636;23.294;2022-07-03T02:52:42;74624.50;;;16.67;100.00
42945;BME280;28584;42.636;23.294;2022-07-03T02:55:39;74655.31;;;16.58;100.00
42945;BME280;28584;42.636;23.294;2022-07-03T03:00:38;74615.13;;;16.57;100.00
42945;BME280;28584;42.636;23.294;2022-07-03T03:03:07;74584.91;;;16.66;100.00
42945;BME280;28584;42.636;23.294;2022-07-03T03:05:49;74519.41;;;16.64;100.00
42945;BME280;28584;42.636;23.294;2022-07-03T03:08:42;74474.66;;;16.61;100.00
42945;BME280;28584;42.636;23.294;2022-07-03T03:11:23;74452.38;;;16.67;100.00
42945;BME280;28584;42.636;23.294;2022-07-03T03:13:55;74536.41;;;16.69;100.00
42945;BME280;28584;42.636;23.294;2022-07-03T03:16:22;74537.56;;;16.79;100.00
42945;BME280;28584;42.636;23.294;2022-07-03T03:18:47;74552.44;;;16.84;100.00
42945;BME280;28584;42.636;23.294;2022-07-03T03:21:17;74646.56;;;16.92;100.00
42945;BME280;28584;42.636;23.294;2022-07-03T03:23:50;74686.97;;;17.09;100.00
42945;BME280;28584;42.636;23.294;2022-07-03T03:26:25;74876.59;;;17.16;100.00
42945;BME280;28584;42.636;23.294;2022-07-03T03:28:51;75154.38;;;17.35;100.00
42945;BME280;28584;42.636;23.294;2022-07-03T03:31:17;75456.50;;;17.57;100.00
42945;BME280;28584;42.636;23.294;2022-07-03T03:33:46;76242.50;;;17.80;100.00
42945;BME280;28584;42.636;23.294;2022-07-03T03:36:13;77851.69;;;17.83;100.00
42945;BME280;28584;42.636;23.294;2022-07-03T03:38:41;79532.00;;;17.93;100.00
42945;BME280;28584;42.636;23.294;2022-07-03T03:41:07;81797.16;;;18.24;100.00
42945;BME280;28584;42.636;23.294;2022-07-03T03:43:34;83493.16;;;18.54;100.00
42945;BME280;28584;42.636;23.294;2022-07-03T03:46:00;85742.91;;;18.83;100.00
42945;BME280;28584;42.636;23.294;2022-07-03T03:48:26;93172.31;;;19.19;100.00
42945;BME280;28584;42.636;23.294;2022-07-03T03:50:52;111113.03;;;19.57;100.00
42945;BME280;28584;42.636;23.294;2022-07-03T03:53:19;143446.53;;;19.91;100.00
42945;BME280;28584;42.636;23.294;2022-07-03T03:56:00;163965.63;;;20.27;100.00
42945;BME280;28584;42.636;23.294;2022-07-03T03:58:30;164051.72;;;20.59;100.00
42945;BME280;28584;42.636;23.294;2022-07-03T04:00:57;164144.66;;;20.94;100.00
42945;BME280;28584;42.636;23.294;2022-07-03T04:03:24;164220.03;;;21.22;100.00
42945;BME280;28584;42.636;23.294;2022-07-03T04:05:50;164298.13;;;21.51;100.00
42945;BME280;28584;42.636;23.294;2022-07-03T04:08:15;164376.31;;;21.80;100.00
42945;BME280;28584;42.636;23.294;2022-07-03T04:10:41;164450.34;;;22.08;100.00
42945;BME280;28584;42.636;23.294;2022-07-03T04:13:06;164544.66;;;22.43;100.00
42945;BME280;28584;42.636;23.294;2022-07-03T04:15:31;164640.38;;;22.78;100.00
42945;BME280;28584;42.636;23.294;2022-07-03T04:17:57;164690.25;;;22.97;100.00
42945;BME280;28584;42.636;23.294;2022-07-03T04:20:22;164757.69;;;23.22;100.00
42945;BME280;28584;42.636;23.294;2022-07-03T04:22:48;164795.44;;;23.36;100.00
42945;BME280;28584;42.636;23.294;2022-07-03T04:25:16;164862.84;;;23.61;100.00
42945;BME280;28584;42.636;23.294;2022-07-03T04:27:41;164787.34;;;23.33;100.00
42945;BME280;28584;42.636;23.294;2022-07-03T04:30:07;164800.84;;;23.38;100.00
42945;BME280;28584;42.636;23.294;2022-07-03T04:32:38;164916.78;;;23.81;100.00
42945;BME280;28584;42.636;23.294;2022-07-03T04:35:05;164995.03;;;24.10;100.00
42945;BME280;28584;42.636;23.294;2022-07-03T04:37:30;164897.91;;;23.74;100.00
42945;BME280;28584;42.636;23.294;2022-07-03T04:39:56;164969.41;;;24.00;100.00
42945;BME280;28584;42.636;23.294;2022-07-03T04:42:21;165012.59;;;24.17;100.00
42945;BME280;28584;42.636;23.294;2022-07-03T04:44:47;164776.56;;;23.29;100.00
42945;BME280;28584;42.636;23.294;2022-07-03T04:47:33;165016.66;;;24.18;100.00
42945;BME280;28584;42.636;23.294;2022-07-03T04:49:58;164938.34;;;23.89;100.00
42945;BME280;28584;42.636;23.294;2022-07-03T04:52:24;164818.34;;;23.44;100.00
42945;BME280;28584;42.636;23.294;2022-07-03T04:54:49;164862.84;;;23.61;100.00
42945;BME280;28584;42.636;23.294;2022-07-03T04:57:14;164978.88;;;24.04;100.00
42945;BME280;28584;42.636;23.294;2022-07-03T04:59:40;164864.19;;;23.61;100.00
42945;BME280;28584;42.636;23.294;2022-07-03T05:02:06;164887.13;;;23.70;100.00
42945;BME280;28584;42.636;23.294;2022-07-03T05:04:31;165032.81;;;24.24;100.00
42945;BME280;28584;42.636;23.294;2022-07-03T05:06:57;164937.03;;;23.88;100.00
42945;BME280;28584;42.636;23.294;2022-07-03T05:09:22;164879.03;;;23.67;100.00
42945;BME280;28584;42.636;23.294;2022-07-03T05:11:48;164872.31;;;23.64;100.00
42945;BME280;28584;42.636;23.294;2022-07-03T05:14:13;164846.66;;;23.55;100.00
42945;BME280;28584;42.636;23.294;2022-07-03T05:16:39;164903.31;;;23.76;100.00
42945;BME280;28584;42.636;23.294;2022-07-03T05:19:04;165112.38;;;24.54;100.00
42945;BME280;28584;42.636;23.294;2022-07-03T05:21:30;165198.84;;;24.86;100.00
42945;BME280;28584;42.636;23.294;2022-07-03T05:23:56;165188.06;;;24.82;100.00
42945;BME280;28584;42.636;23.294;2022-07-03T05:26:21;165391.88;;;25.57;100.00
42945;BME280;28584;42.636;23.294;2022-07-03T05:28:47;165011.25;;;24.16;100.00
42945;BME280;28584;42.636;23.294;2022-07-03T05:31:12;165316.25;;;25.29;100.00
42945;BME280;28584;42.636;23.294;2022-07-03T05:33:38;165275.72;;;25.14;100.00
42945;BME280;28584;42.636;23.294;2022-07-03T05:36:04;165544.53;;;26.14;100.00
42945;BME280;28584;42.636;23.294;2022-07-03T05:38:31;165597.19;;;26.33;93.79
42945;BME280;28584;42.636;23.294;2022-07-03T05:41:29;165420.22;;;25.68;98.44
42945;BME280;28584;42.636;23.294;2022-07-03T05:43:54;165524.25;;;26.06;99.66
42945;BME280;28584;42.636;23.294;2022-07-03T05:46:20;165372.97;;;25.50;98.33
42945;BME280;28584;42.636;23.294;2022-07-03T05:48:45;165453.94;;;25.80;98.89
42945;BME280;28584;42.636;23.294;2022-07-03T05:51:10;165702.59;;;26.73;88.15
42945;BME280;28584;42.636;23.294;2022-07-03T05:53:36;165421.59;;;25.68;89.47
42945;BME280;28584;42.636;23.294;2022-07-03T05:56:01;165710.69;;;26.76;85.41
42945;BME280;28584;42.636;23.294;2022-07-03T05:58:27;165813.38;;;27.14;80.10
42945;BME280;28584;42.636;23.294;2022-07-03T06:00:52;165714.75;;;26.77;84.45
42945;BME280;28584;42.636;23.294;2022-07-03T06:03:18;166009.44;;;27.86;73.11
42945;BME280;28584;42.636;23.294;2022-07-03T06:05:43;166070.28;;;28.09;68.07
42945;BME280;28584;42.636;23.294;2022-07-03T06:08:09;165772.88;;;26.99;74.20
42945;BME280;28584;42.636;23.294;2022-07-03T06:10:34;166012.19;;;27.87;72.40
42945;BME280;28584;42.636;23.294;2022-07-03T06:13:00;166173.09;;;28.47;64.41
42945;BME280;28584;42.636;23.294;2022-07-03T06:15:25;166246.16;;;28.74;61.76
42945;BME280;28584;42.636;23.294;2022-07-03T06:17:51;166390.94;;;29.28;60.24
42945;BME280;28584;42.636;23.294;2022-07-03T06:20:16;166192.03;;;28.54;64.33
42945;BME280;28584;42.636;23.294;2022-07-03T06:22:42;166166.34;;;28.44;67.61
42945;BME280;28584;42.636;23.294;2022-07-03T06:25:07;165926.97;;;27.56;66.31
42945;BME280;28584;42.636;23.294;2022-07-03T06:27:33;165674.25;;;26.62;87.91
42945;BME280;28584;42.636;23.294;2022-07-03T06:29:59;166155.50;;;28.40;68.61
42945;BME280;28584;42.636;23.294;2022-07-03T06:32:24;166434.28;;;29.44;61.69
42945;BME280;28584;42.636;23.294;2022-07-03T06:34:50;166656.31;;;30.26;56.20
42945;BME280;28584;42.636;23.294;2022-07-03T06:37:23;166684.75;;;30.36;56.02
42945;BME280;28584;42.636;23.294;2022-07-03T06:39:49;166334.13;;;29.07;60.84
42945;BME280;28584;42.636;23.294;2022-07-03T06:42:14;166422.09;;;29.39;57.28
42945;BME280;28584;42.636;23.294;2022-07-03T06:44:40;165820.13;;;27.16;80.99
42945;BME280;28584;42.636;23.294;2022-07-03T06:47:06;166256.97;;;28.78;64.09
42945;BME280;28584;42.636;23.294;2022-07-03T06:49:33;166432.91;;;29.43;59.19
42945;BME280;28584;42.636;23.294;2022-07-03T06:51:59;166171.78;;;28.46;62.11
42945;BME280;28584;42.636;23.294;2022-07-03T06:54:25;166008.13;;;27.86;67.24
42945;BME280;28584;42.636;23.294;2022-07-03T06:56:51;166078.41;;;28.12;67.92
42945;BME280;28584;42.636;23.294;2022-07-03T06:59:16;166308.38;;;28.97;66.31
42945;BME280;28584;42.636;23.294;2022-07-03T07:01:42;166001.31;;;27.83;66.20
42945;BME280;28584;42.636;23.294;2022-07-03T07:04:07;166380.13;;;29.24;60.97
42945;BME280;28584;42.636;23.294;2022-07-03T07:06:33;166340.88;;;29.09;61.23
42945;BME280;28584;42.636;23.294;2022-07-03T07:08:59;165981.03;;;27.76;69.90
42945;BME280;28584;42.636;23.294;2022-07-03T07:11:24;166073.03;;;28.10;73.82
42945;BME280;28584;42.636;23.294;2022-07-03T07:13:50;166381.50;;;29.24;58.93
42945;BME280;28584;42.636;23.294;2022-07-03T07:16:15;166497.91;;;29.67;56.30
42945;BME280;28584;42.636;23.294;2022-07-03T07:18:41;166535.78;;;29.81;55.61
42945;BME280;28584;42.636;23.294;2022-07-03T07:21:07;166684.75;;;30.36;52.00
42945;BME280;28584;42.636;23.294;2022-07-03T07:23:33;166820.19;;;30.86;50.46
42945;BME280;28584;42.636;23.294;2022-07-03T07:25:58;166752.44;;;30.61;50.61
42945;BME280;28584;42.636;23.294;2022-07-03T07:28:23;166568.31;;;29.93;51.95
42945;BME280;28584;42.636;23.294;2022-07-03T07:30:49;166533.09;;;29.80;53.45
42945;BME280;28584;42.636;23.294;2022-07-03T07:33:14;166488.47;;;29.64;54.93
42945;BME280;28584;42.636;23.294;2022-07-03T07:35:40;166633.34;;;30.17;53.12
42945;BME280;28584;42.636;23.294;2022-07-03T07:38:05;166954.31;;;31.36;51.11
42945;BME280;28584;42.636;23.294;2022-07-03T07:40:31;166036.50;;;27.96;59.92
42945;BME280;28584;42.636;23.294;2022-07-03T07:42:56;166595.31;;;30.03;55.26
42945;BME280;28584;42.636;23.294;2022-07-03T07:45:21;166803.97;;;30.80;51.58
42945;BME280;28584;42.636;23.294;2022-07-03T07:47:47;167085.81;;;31.85;48.33
42945;BME280;28584;42.636;23.294;2022-07-03T07:50:13;167287.81;;;32.59;46.02
42945;BME280;28584;42.636;23.294;2022-07-03T07:52:39;167503.44;;;33.39;43.31
42945;BME280;28584;42.636;23.294;2022-07-03T07:55:05;167492.63;;;33.35;43.28
42945;BME280;28584;42.636;23.294;2022-07-03T07:57:38;167373.22;;;32.91;44.50
42945;BME280;28584;42.636;23.294;2022-07-03T08:00:06;167375.97;;;32.92;43.99
42945;BME280;28584;42.636;23.294;2022-07-03T08:02:32;167645.94;;;33.92;42.67
42945;BME280;28584;42.636;23.294;2022-07-03T08:05:16;167664.91;;;33.99;43.75
42945;BME280;28584;42.636;23.294;2022-07-03T08:08:00;167861.69;;;34.71;40.61
42945;BME280;28584;42.636;23.294;2022-07-03T08:10:26;168023.31;;;35.31;39.88
42945;BME280;28584;42.636;23.294;2022-07-03T08:12:51;168008.31;;;35.25;39.06
42945;BME280;28584;42.636;23.294;2022-07-03T08:15:17;168012.41;;;35.27;38.75
42945;BME280;28584;42.636;23.294;2022-07-03T08:17:43;168060.00;;;35.44;39.06
42945;BME280;28584;42.636;23.294;2022-07-03T08:20:09;168125.09;;;35.68;37.49
42945;BME280;28584;42.636;23.294;2022-07-03T08:22:34;168030.09;;;35.33;38.07
42945;BME280;28584;42.636;23.294;2022-07-03T08:25:00;168081.69;;;35.52;38.81
42945;BME280;28584;42.636;23.294;2022-07-03T08:27:25;168047.75;;;35.40;39.55
42945;BME280;28584;42.636;23.294;2022-07-03T08:29:51;167848.13;;;34.66;39.51
42945;BME280;28584;42.636;23.294;2022-07-03T08:32:16;168079.00;;;35.51;38.99
42945;BME280;28584;42.636;23.294;2022-07-03T08:34:41;168035.53;;;35.35;38.95
42945;BME280;28584;42.636;23.294;2022-07-03T08:37:07;167940.47;;;35.00;39.97
42945;BME280;28584;42.636;23.294;2022-07-03T08:39:32;167935.03;;;34.98;40.29
42945;BME280;28584;42.636;23.294;2022-07-03T08:41:58;167978.47;;;35.14;39.52
42945;BME280;28584;42.636;23.294;2022-07-03T08:44:24;167664.91;;;33.99;39.81
42945;BME280;28584;42.636;23.294;2022-07-03T08:46:51;167761.31;;;34.34;40.98
42945;BME280;28584;42.636;23.294;2022-07-03T08:49:18;167842.69;;;34.64;39.99
42945;BME280;28584;42.636;23.294;2022-07-03T08:51:45;166942.13;;;31.31;45.85
42945;BME280;28584;42.636;23.294;2022-07-03T08:54:11;166897.41;;;31.15;47.66
42945;BME280;28584;42.636;23.294;2022-07-03T08:56:36;166506.03;;;29.70;49.79
42945;BME280;28584;42.636;23.294;2022-07-03T08:59:05;167110.19;;;31.94;47.45
42945;BME280;28584;42.636;23.294;2022-07-03T09:01:33;167266.13;;;32.51;44.32
42945;BME280;28584;42.636;23.294;2022-07-03T09:03:59;167222.75;;;32.35;45.13
42945;BME280;28584;42.636;23.294;2022-07-03T09:06:25;167359.69;;;32.86;43.36
42945;BME280;28584;42.636;23.294;2022-07-03T09:08:51;167411.19;;;33.05;42.64
42945;BME280;28584;42.636;23.294;2022-07-03T09:11:18;167629.63;;;33.86;40.23
42945;BME280;28584;42.636;23.294;2022-07-03T09:13:44;167514.28;;;33.43;40.07
42945;BME280;28584;42.636;23.294;2022-07-03T09:16:16;167595.69;;;33.73;40.19
42945;BME280;28584;42.636;23.294;2022-07-03T09:18:43;167607.91;;;33.78;39.58
42945;BME280;28584;42.636;23.294;2022-07-03T09:21:09;167394.97;;;32.99;41.92
42945;BME280;28584;42.636;23.294;2022-07-03T09:23:41;167329.81;;;32.75;39.69
42945;BME280;28584;42.636;23.294;2022-07-03T09:26:15;167381.38;;;32.94;40.70
42945;BME280;28584;42.636;23.294;2022-07-03T09:28:52;167484.41;;;33.32;40.36
42945;BME280;28584;42.636;23.294;2022-07-03T09:31:23;167620.13;;;33.82;38.82
42945;BME280;28584;42.636;23.294;2022-07-03T09:34:05;167437.00;;;33.14;40.55
42945;BME280;28584;42.636;23.294;2022-07-03T09:36:46;167358.31;;;32.85;39.52
42945;BME280;28584;42.636;23.294;2022-07-03T09:39:22;167416.63;;;33.07;38.72
42945;BME280;28584;42.636;23.294;2022-07-03T09:42:07;167370.53;;;32.90;38.74
42945;BME280;28584;42.636;23.294;2022-07-03T09:44:35;167449.19;;;33.19;39.11
42945;BME280;28584;42.636;23.294;2022-07-03T09:47:20;167451.91;;;33.20;37.66
42945;BME280;28584;42.636;23.294;2022-07-03T09:57:31;167557.72;;;33.59;34.98
42945;BME280;28584;42.636;23.294;2022-07-03T10:00:20;167667.63;;;34.00;36.14
42945;BME280;28584;42.636;23.294;2022-07-03T10:03:05;167590.28;;;33.71;34.49
42945;BME280;28584;42.636;23.294;2022-07-03T10:05:39;167495.31;;;33.36;34.71
42945;BME280;28584;42.636;23.294;2022-07-03T10:08:07;167531.94;;;33.49;34.90
42945;BME280;28584;42.636;23.294;2022-07-03T10:10:35;167510.28;;;33.41;32.66
42945;BME280;28584;42.636;23.294;2022-07-03T10:13:02;167489.84;;;33.34;33.67
42945;BME280;28584;42.636;23.294;2022-07-03T10:15:29;167418.00;;;33.07;32.83
42945;BME280;28584;42.636;23.294;2022-07-03T10:17:56;167469.50;;;33.26;33.49
42945;BME280;28584;42.636;23.294;2022-07-03T10:20:25;167704.28;;;34.13;32.77
42945;BME280;28584;42.636;23.294;2022-07-03T10:22:51;167669.00;;;34.00;31.43
42945;BME280;28584;42.636;23.294;2022-07-03T10:25:17;167226.81;;;32.37;34.12
42945;BME280;28584;42.636;23.294;2022-07-03T10:27:44;167023.44;;;31.62;33.04
42945;BME280;28584;42.636;23.294;2022-07-03T10:30:14;167018.03;;;31.60;33.41
42945;BME280;28584;42.636;23.294;2022-07-03T10:32:40;166955.69;;;31.37;30.84
42945;BME280;28584;42.636;23.294;2022-07-03T10:35:08;167001.75;;;31.54;31.72
42945;BME280;28584;42.636;23.294;2022-07-03T10:37:43;167093.97;;;31.88;30.30
42945;BME280;28584;42.636;23.294;2022-07-03T10:40:21;166859.47;;;31.01;31.91
42945;BME280;28584;42.636;23.294;2022-07-03T10:43:14;166709.13;;;30.45;33.20
42945;BME280;28584;42.636;23.294;2022-07-03T10:46:17;166691.50;;;30.39;34.24
42945;BME280;28584;42.636;23.294;2022-07-03T10:51:32;166802.59;;;30.80;35.44
42945;BME280;28584;42.636;23.294;2022-07-03T10:54:16;166797.22;;;30.78;34.71
42945;BME280;28584;42.636;23.294;2022-07-03T11:07:32;167768.06;;;34.37;29.20
42945;BME280;28584;42.636;23.294;2022-07-03T11:13:06;167407.16;;;33.03;30.98
42945;BME280;28584;42.636;23.294;2022-07-03T11:15:43;167400.34;;;33.01;31.19
42945;BME280;28584;42.636;23.294;2022-07-03T11:18:32;167331.16;;;32.75;32.01
42945;BME280;28584;42.636;23.294;2022-07-03T11:21:36;167199.66;;;32.27;32.15
42945;BME280;28584;42.636;23.294;2022-07-03T11:24:02;167137.28;;;32.04;34.21
42945;BME280;28584;42.636;23.294;2022-07-03T11:26:28;167281.03;;;32.57;35.14
42945;BME280;28584;42.636;23.294;2022-07-03T11:28:53;167332.53;;;32.76;32.65
42945;BME280;28584;42.636;23.294;2022-07-03T11:31:21;167217.28;;;32.33;34.73
42945;BME280;28584;42.636;23.294;2022-07-03T11:38:52;167430.16;;;33.12;31.56
42945;BME280;28584;42.636;23.294;2022-07-03T11:44:04;167481.72;;;33.31;32.88
42945;BME280;28584;42.636;23.294;2022-07-03T11:46:39;167498.06;;;33.37;31.79
42945;BME280;28584;42.636;23.294;2022-07-03T11:49:05;167536.03;;;33.51;32.24
42945;BME280;28584;42.636;23.294;2022-07-03T11:51:32;167599.75;;;33.74;30.32
42945;BME280;28584;42.636;23.294;2022-07-03T11:53:58;167411.19;;;33.05;30.88
42945;BME280;28584;42.636;23.294;2022-07-03T11:56:23;167424.78;;;33.10;31.75
42945;BME280;28584;42.636;23.294;2022-07-03T11:58:51;167504.81;;;33.39;31.27
42945;BME280;28584;42.636;23.294;2022-07-03T12:04:12;167408.50;;;33.04;31.82
42945;BME280;28584;42.636;23.294;2022-07-03T12:14:17;167412.56;;;33.05;32.39
42945;BME280;28584;42.636;23.294;2022-07-03T12:16:57;167468.19;;;33.26;31.45
42945;BME280;28584;42.636;23.294;2022-07-03T12:19:23;167382.75;;;32.94;31.33
42945;BME280;28584;42.636;23.294;2022-07-03T12:21:48;167294.56;;;32.62;33.60
42945;BME280;28584;42.636;23.294;2022-07-03T12:24:14;167107.47;;;31.93;34.63
42945;BME280;28584;42.636;23.294;2022-07-03T12:26:40;166908.22;;;31.19;35.90
42945;BME280;28584;42.636;23.294;2022-07-03T12:29:08;166875.75;;;31.07;35.99
42945;BME280;28584;42.636;23.294;2022-07-03T12:31:34;166701.00;;;30.42;37.24
42945;BME280;28584;42.636;23.294;2022-07-03T12:34:01;166629.22;;;30.16;39.60
42945;BME280;28584;42.636;23.294;2022-07-03T12:36:27;166587.25;;;30.00;37.85
42945;BME280;28584;42.636;23.294;2022-07-03T12:38:56;166627.84;;;30.15;38.67
42945;BME280;28584;42.636;23.294;2022-07-03T12:41:23;166566.94;;;29.93;39.75
42945;BME280;28584;42.636;23.294;2022-07-03T12:43:49;166589.94;;;30.01;41.40
42945;BME280;28584;42.636;23.294;2022-07-03T12:48:58;166430.22;;;29.42;42.18
42945;BME280;28584;42.636;23.294;2022-07-03T12:51:48;166453.22;;;29.51;41.77
42945;BME280;28584;42.636;23.294;2022-07-03T12:54:14;166491.16;;;29.65;41.29
42945;BME280;28584;42.636;23.294;2022-07-03T12:56:42;166538.50;;;29.82;41.14
42945;BME280;28584;42.636;23.294;2022-07-03T12:59:27;166535.78;;;29.81;41.46
42945;BME280;28584;42.636;23.294;2022-07-03T13:02:05;166484.41;;;29.62;41.41
42945;BME280;28584;42.636;23.294;2022-07-03T13:04:36;166512.78;;;29.73;41.43
42945;BME280;28584;42.636;23.294;2022-07-03T13:07:04;166637.34;;;30.19;40.97
42945;BME280;28584;42.636;23.294;2022-07-03T13:09:30;166755.19;;;30.62;41.65
42945;BME280;28584;42.636;23.294;2022-07-03T13:11:56;166805.28;;;30.81;40.85
42945;BME280;28584;42.636;23.294;2022-07-03T13:14:22;166839.16;;;30.93;39.39
42945;BME280;28584;42.636;23.294;2022-07-03T13:16:51;166801.22;;;30.79;40.23
42945;BME280;28584;42.636;23.294;2022-07-03T13:19:19;166850.03;;;30.97;40.32
42945;BME280;28584;42.636;23.294;2022-07-03T13:21:46;166885.19;;;31.10;39.58
42945;BME280;28584;42.636;23.294;2022-07-03T13:24:13;166892.00;;;31.13;38.65
42945;BME280;28584;42.636;23.294;2022-07-03T13:26:41;166870.31;;;31.05;39.72
42945;BME280;28584;42.636;23.294;2022-07-03T13:29:06;166852.72;;;30.98;39.65
42945;BME280;28584;42.636;23.294;2022-07-03T13:31:32;166935.38;;;31.29;40.09
42945;BME280;28584;42.636;23.294;2022-07-03T13:33:58;166959.78;;;31.38;39.54
42945;BME280;28584;42.636;23.294;2022-07-03T13:36:25;166874.38;;;31.06;38.55
42945;BME280;28584;42.636;23.294;2022-07-03T13:38:51;166898.78;;;31.15;39.57
42945;BME280;28584;42.636;23.294;2022-07-03T13:41:16;166954.31;;;31.36;38.14
42945;BME280;28584;42.636;23.294;2022-07-03T13:43:44;166942.13;;;31.31;38.73
42945;BME280;28584;42.636;23.294;2022-07-03T13:46:10;167037.00;;;31.67;38.41
42945;BME280;28584;42.636;23.294;2022-07-03T13:48:35;167106.09;;;31.92;38.99
42945;BME280;28584;42.636;23.294;2022-07-03T13:51:01;167199.66;;;32.27;38.50